sensor_id;sensor_type;location;lat;lon;timestamp;temperature;humidity
17956;DHT22;27666;51.498;11.966;2023-02-11T00:02:02;3.50;99.90
17956;DHT22;27666;51.498;11.966;2023-02-11T00:04:53;3.50;99.90
17956;DHT22;27666;51.498;11.966;2023-02-11T00:07:40;3.60;99.90
17956;DHT22;27666;51.498;11.966;2023-02-11T00:10:26;3.70;99.90
17956;DHT22;27666;51.498;11.966;2023-02-11T00:13:13;3.70;99.90
17956;DHT22;27666;51.498;11.966;2023-02-11T00:15:59;3.60;99.90
17956;DHT22;27666;51.498;11.966;2023-02-11T00:18:45;3.50;99.90
17956;DHT22;27666;51.498;11.966;2023-02-11T00:21:34;3.50;99.90
17956;DHT22;27666;51.498;11.966;2023-02-11T00:24:21;3.40;99.90
17956;DHT22;27666;51.498;11.966;2023-02-11T00:27:08;3.50;99.90
17956;DHT22;27666;51.498;11.966;2023-02-11T00:29:55;3.50;99.90
17956;DHT22;27666;51.498;11.966;2023-02-11T00:32:41;3.50;99.90
17956;DHT22;27666;51.498;11.966;2023-02-11T00:35:28;3.50;99.90
17956;DHT22;27666;51.498;11.966;2023-02-11T00:38:19;3.50;99.90
17956;DHT22;27666;51.498;11.966;2023-02-11T00:41:07;3.50;99.90
17956;DHT22;27666;51.498;11.966;2023-02-11T00:43:53;3.50;99.90
17956;DHT22;27666;51.498;11.966;2023-02-11T00:46:40;3.50;99.90
17956;DHT22;27666;51.498;11.966;2023-02-11T00:49:26;3.50;99.90
17956;DHT22;27666;51.498;11.966;2023-02-11T00:52:13;3.40;99.90
17956;DHT22;27666;51.498;11.966;2023-02-11T00:55:02;3.40;99.90
17956;DHT22;27666;51.498;11.966;2023-02-11T00:57:49;3.40;99.90
17956;DHT22;27666;51.498;11.966;2023-02-11T01:00:36;3.40;99.90
17956;DHT22;27666;51.498;11.966;2023-02-11T01:03:22;3.40;99.90
17956;DHT22;27666;51.498;11.966;2023-02-11T01:06:09;3.40;99.90
17956;DHT22;27666;51.498;11.966;2023-02-11T01:08:56;3.50;99.90
17956;DHT22;27666;51.498;11.966;2023-02-11T01:11:44;3.50;99.90
17956;DHT22;27666;51.498;11.966;2023-02-11T01:14:30;3.50;99.90
17956;DHT22;27666;51.498;11.966;2023-02-11T01:17:17;3.50;99.90
17956;DHT22;27666;51.498;11.966;2023-02-11T01:20:04;3.60;99.90
17956;DHT22;27666;51.498;11.966;2023-02-11T01:22:53;3.70;99.90
17956;DHT22;27666;51.498;11.966;2023-02-11T01:25:39;3.70;99.90
17956;DHT22;27666;51.498;11.966;2023-02-11T01:28:28;3.70;99.90
17956;DHT22;27666;51.498;11.966;2023-02-11T01:31:15;3.70;99.90
17956;DHT22;27666;51.498;11.966;2023-02-11T01:34:02;3.80;99.90
17956;DHT22;27666;51.498;11.966;2023-02-11T01:36:48;3.80;99.90
17956;DHT22;27666;51.498;11.966;2023-02-11T01:39:35;3.90;99.90
17956;DHT22;27666;51.498;11.966;2023-02-11T01:42:22;3.90;99.90
17956;DHT22;27666;51.498;11.966;2023-02-11T01:48:36;4.00;99.90
17956;DHT22;27666;51.498;11.966;2023-02-11T01:51:27;4.00;99.90
17956;DHT22;27666;51.498;11.966;2023-02-11T01:54:20;4.10;99.90
17956;DHT22;27666;51.498;11.966;2023-02-11T01:57:27;4.10;99.90
17956;DHT22;27666;51.498;11.966;2023-02-11T02:00:17;4.10;99.90
17956;DHT22;27666;51.498;11.966;2023-02-11T02:03:07;4.10;99.90
17956;DHT22;27666;51.498;11.966;2023-02-11T02:05:58;4.20;99.90
17956;DHT22;27666;51.498;11.966;2023-02-11T02:08:51;4.30;99.90
17956;DHT22;27666;51.498;11.966;2023-02-11T02:11:39;4.30;99.90
17956;DHT22;27666;51.498;11.966;2023-02-11T02:14:26;4.20;99.90
17956;DHT22;27666;51.498;11.966;2023-02-11T02:17:24;4.20;99.90
17956;DHT22;27666;51.498;11.966;2023-02-11T02:20:49;4.20;99.90
17956;DHT22;27666;51.498;11.966;2023-02-11T02:27:09;4.30;99.90
17956;DHT22;27666;51.498;11.966;2023-02-11T02:33:29;4.40;99.90
17956;DHT22;27666;51.498;11.966;2023-02-11T02:36:22;4.40;99.90
17956;DHT22;27666;51.498;11.966;2023-02-11T02:39:12;4.50;99.90
17956;DHT22;27666;51.498;11.966;2023-02-11T02:42:01;4.50;99.90
17956;DHT22;27666;51.498;11.966;2023-02-11T02:44:48;4.50;99.90
17956;DHT22;27666;51.498;11.966;2023-02-11T02:47:35;4.50;99.90
17956;DHT22;27666;51.498;11.966;2023-02-11T02:50:29;4.50;99.90
17956;DHT22;27666;51.498;11.966;2023-02-11T02:53:23;4.60;99.90
17956;DHT22;27666;51.498;11.966;2023-02-11T02:56:18;4.50;99.90
17956;DHT22;27666;51.498;11.966;2023-02-11T02:59:18;4.50;99.90
17956;DHT22;27666;51.498;11.966;2023-02-11T03:02:13;4.60;99.90
17956;DHT22;27666;51.498;11.966;2023-02-11T03:05:07;4.60;99.90
17956;DHT22;27666;51.498;11.966;2023-02-11T03:08:00;4.70;99.90
17956;DHT22;27666;51.498;11.966;2023-02-11T03:10:50;4.60;99.90
17956;DHT22;27666;51.498;11.966;2023-02-11T03:13:39;4.60;99.90
17956;DHT22;27666;51.498;11.966;2023-02-11T03:16:27;4.70;99.90
17956;DHT22;27666;51.498;11.966;2023-02-11T03:19:17;4.70;99.90
17956;DHT22;27666;51.498;11.966;2023-02-11T03:22:08;4.70;99.90
17956;DHT22;27666;51.498;11.966;2023-02-11T03:24:59;4.70;99.90
17956;DHT22;27666;51.498;11.966;2023-02-11T03:27:51;4.70;99.90
17956;DHT22;27666;51.498;11.966;2023-02-11T03:30:40;4.80;99.90
17956;DHT22;27666;51.498;11.966;2023-02-11T03:33:32;4.90;99.90
17956;DHT22;27666;51.498;11.966;2023-02-11T03:36:25;4.80;99.90
17956;DHT22;27666;51.498;11.966;2023-02-11T03:39:18;4.90;99.90
17956;DHT22;27666;51.498;11.966;2023-02-11T03:42:07;4.90;99.90
17956;DHT22;27666;51.498;11.966;2023-02-11T03:44:58;4.90;99.90
17956;DHT22;27666;51.498;11.966;2023-02-11T03:47:48;4.80;99.90
17956;DHT22;27666;51.498;11.966;2023-02-11T03:50:38;4.90;99.90
17956;DHT22;27666;51.498;11.966;2023-02-11T03:53:25;5.00;99.90
17956;DHT22;27666;51.498;11.966;2023-02-11T03:56:14;4.90;99.90
17956;DHT22;27666;51.498;11.966;2023-02-11T03:59:04;4.90;99.90
17956;DHT22;27666;51.498;11.966;2023-02-11T04:01:51;5.00;99.90
17956;DHT22;27666;51.498;11.966;2023-02-11T04:04:38;5.00;99.90
17956;DHT22;27666;51.498;11.966;2023-02-11T04:07:24;5.00;99.90
17956;DHT22;27666;51.498;11.966;2023-02-11T04:10:11;5.00;99.90
17956;DHT22;27666;51.498;11.966;2023-02-11T04:12:58;5.00;99.90
17956;DHT22;27666;51.498;11.966;2023-02-11T04:15:46;5.00;99.90
17956;DHT22;27666;51.498;11.966;2023-02-11T04:18:33;5.00;99.90
17956;DHT22;27666;51.498;11.966;2023-02-11T04:21:19;5.00;99.90
17956;DHT22;27666;51.498;11.966;2023-02-11T04:24:06;4.90;99.90
17956;DHT22;27666;51.498;11.966;2023-02-11T04:26:52;4.90;99.90
17956;DHT22;27666;51.498;11.966;2023-02-11T04:29:39;5.00;99.90
17956;DHT22;27666;51.498;11.966;2023-02-11T04:32:27;5.00;99.90
17956;DHT22;27666;51.498;11.966;2023-02-11T04:35:14;5.10;99.90
17956;DHT22;27666;51.498;11.966;2023-02-11T04:38:00;5.00;99.90
17956;DHT22;27666;51.498;11.966;2023-02-11T04:40:47;5.00;99.90
17956;DHT22;27666;51.498;11.966;2023-02-11T04:43:33;5.00;99.90
17956;DHT22;27666;51.498;11.966;2023-02-11T04:46:20;4.90;99.90
17956;DHT22;27666;51.498;11.966;2023-02-11T04:49:09;4.90;99.90
17956;DHT22;27666;51.498;11.966;2023-02-11T04:51:57;4.90;99.90
17956;DHT22;27666;51.498;11.966;2023-02-11T04:54:43;4.90;99.90
17956;DHT22;27666;51.498;11.966;2023-02-11T04:57:30;4.90;99.90
17956;DHT22;27666;51.498;11.966;2023-02-11T05:00:16;4.90;99.90
17956;DHT22;27666;51.498;11.966;2023-02-11T05:03:03;4.80;99.90
17956;DHT22;27666;51.498;11.966;2023-02-11T05:05:51;4.80;99.90
17956;DHT22;27666;51.498;11.966;2023-02-11T05:08:37;4.70;99.90
17956;DHT22;27666;51.498;11.966;2023-02-11T05:11:25;4.70;99.90
17956;DHT22;27666;51.498;11.966;2023-02-11T05:14:11;4.70;99.90
17956;DHT22;27666;51.498;11.966;2023-02-11T05:16:58;4.70;99.90
17956;DHT22;27666;51.498;11.966;2023-02-11T05:19:45;4.60;99.90
17956;DHT22;27666;51.498;11.966;2023-02-11T05:22:32;4.70;99.90
17956;DHT22;27666;51.498;11.966;2023-02-11T05:25:19;4.70;99.90
17956;DHT22;27666;51.498;11.966;2023-02-11T05:28:05;4.90;99.90
17956;DHT22;27666;51.498;11.966;2023-02-11T05:30:51;4.80;99.90
17956;DHT22;27666;51.498;11.966;2023-02-11T05:33:38;4.80;99.90
17956;DHT22;27666;51.498;11.966;2023-02-11T05:36:24;4.80;99.90
17956;DHT22;27666;51.498;11.966;2023-02-11T05:39:12;4.90;99.90
17956;DHT22;27666;51.498;11.966;2023-02-11T05:41:58;4.90;99.90
17956;DHT22;27666;51.498;11.966;2023-02-11T05:44:45;5.00;99.90
17956;DHT22;27666;51.498;11.966;2023-02-11T05:47:34;5.00;99.90
17956;DHT22;27666;51.498;11.966;2023-02-11T05:50:21;5.00;99.90
17956;DHT22;27666;51.498;11.966;2023-02-11T05:53:07;5.00;99.90
17956;DHT22;27666;51.498;11.966;2023-02-11T05:55:55;5.00;99.90
17956;DHT22;27666;51.498;11.966;2023-02-11T05:58:42;5.00;99.90
17956;DHT22;27666;51.498;11.966;2023-02-11T06:01:28;4.90;99.90
17956;DHT22;27666;51.498;11.966;2023-02-11T06:04:15;4.90;99.90
17956;DHT22;27666;51.498;11.966;2023-02-11T06:07:02;4.90;99.90
17956;DHT22;27666;51.498;11.966;2023-02-11T06:09:51;5.00;99.90
17956;DHT22;27666;51.498;11.966;2023-02-11T06:12:39;5.10;99.90
17956;DHT22;27666;51.498;11.966;2023-02-11T06:15:25;5.10;99.90
17956;DHT22;27666;51.498;11.966;2023-02-11T06:18:11;5.10;99.90
17956;DHT22;27666;51.498;11.966;2023-02-11T06:20:58;5.10;99.90
17956;DHT22;27666;51.498;11.966;2023-02-11T06:23:45;5.20;99.90
17956;DHT22;27666;51.498;11.966;2023-02-11T06:26:31;5.20;99.90
17956;DHT22;27666;51.498;11.966;2023-02-11T06:29:19;5.20;99.90
17956;DHT22;27666;51.498;11.966;2023-02-11T06:32:05;5.20;99.90
17956;DHT22;27666;51.498;11.966;2023-02-11T06:35:07;5.10;99.90
17956;DHT22;27666;51.498;11.966;2023-02-11T06:37:56;5.20;99.90
17956;DHT22;27666;51.498;11.966;2023-02-11T06:40:46;5.10;99.90
17956;DHT22;27666;51.498;11.966;2023-02-11T06:43:32;5.20;99.90
17956;DHT22;27666;51.498;11.966;2023-02-11T06:46:21;5.20;99.90
17956;DHT22;27666;51.498;11.966;2023-02-11T06:49:08;5.20;99.90
17956;DHT22;27666;51.498;11.966;2023-02-11T06:51:54;5.30;99.90
17956;DHT22;27666;51.498;11.966;2023-02-11T06:54:40;5.30;99.90
17956;DHT22;27666;51.498;11.966;2023-02-11T06:57:28;5.20;99.90
17956;DHT22;27666;51.498;11.966;2023-02-11T07:00:15;5.30;99.90
17956;DHT22;27666;51.498;11.966;2023-02-11T07:03:03;5.40;99.90
17956;DHT22;27666;51.498;11.966;2023-02-11T07:05:50;5.20;99.90
17956;DHT22;27666;51.498;11.966;2023-02-11T07:08:37;5.30;99.90
17956;DHT22;27666;51.498;11.966;2023-02-11T07:11:25;5.30;99.90
17956;DHT22;27666;51.498;11.966;2023-02-11T07:14:11;5.30;99.90
17956;DHT22;27666;51.498;11.966;2023-02-11T07:16:58;5.30;99.90
17956;DHT22;27666;51.498;11.966;2023-02-11T07:19:45;5.30;99.90
17956;DHT22;27666;51.498;11.966;2023-02-11T07:22:33;5.30;99.90
17956;DHT22;27666;51.498;11.966;2023-02-11T07:25:20;5.40;99.90
17956;DHT22;27666;51.498;11.966;2023-02-11T07:28:06;5.40;99.90
17956;DHT22;27666;51.498;11.966;2023-02-11T07:30:52;5.40;99.90
17956;DHT22;27666;51.498;11.966;2023-02-11T07:33:39;5.50;99.90
17956;DHT22;27666;51.498;11.966;2023-02-11T07:36:28;5.50;99.90
17956;DHT22;27666;51.498;11.966;2023-02-11T07:39:16;5.50;99.90
17956;DHT22;27666;51.498;11.966;2023-02-11T07:42:04;5.50;99.90
17956;DHT22;27666;51.498;11.966;2023-02-11T07:44:50;5.60;99.90
17956;DHT22;27666;51.498;11.966;2023-02-11T07:47:37;5.60;99.90
17956;DHT22;27666;51.498;11.966;2023-02-11T07:50:23;5.70;99.90
17956;DHT22;27666;51.498;11.966;2023-02-11T07:53:11;5.70;99.90
17956;DHT22;27666;51.498;11.966;2023-02-11T07:55:57;5.80;99.90
17956;DHT22;27666;51.498;11.966;2023-02-11T07:58:44;5.80;99.90
17956;DHT22;27666;51.498;11.966;2023-02-11T08:01:31;5.80;99.90
17956;DHT22;27666;51.498;11.966;2023-02-11T08:04:18;5.90;99.90
17956;DHT22;27666;51.498;11.966;2023-02-11T08:07:04;5.80;99.90
17956;DHT22;27666;51.498;11.966;2023-02-11T08:09:52;5.90;99.90
17956;DHT22;27666;51.498;11.966;2023-02-11T08:12:39;6.00;99.90
17956;DHT22;27666;51.498;11.966;2023-02-11T08:15:25;6.00;99.90
17956;DHT22;27666;51.498;11.966;2023-02-11T08:18:12;6.00;99.90
17956;DHT22;27666;51.498;11.966;2023-02-11T08:21:03;6.10;99.90
17956;DHT22;27666;51.498;11.966;2023-02-11T08:23:50;6.10;99.90
17956;DHT22;27666;51.498;11.966;2023-02-11T08:26:38;6.10;99.90
17956;DHT22;27666;51.498;11.966;2023-02-11T08:29:25;6.20;99.90
17956;DHT22;27666;51.498;11.966;2023-02-11T08:32:11;6.20;99.90
17956;DHT22;27666;51.498;11.966;2023-02-11T08:34:58;6.30;99.90
17956;DHT22;27666;51.498;11.966;2023-02-11T08:37:45;6.40;99.90
17956;DHT22;27666;51.498;11.966;2023-02-11T08:40:31;6.40;99.90
17956;DHT22;27666;51.498;11.966;2023-02-11T08:43:19;6.30;99.90
17956;DHT22;27666;51.498;11.966;2023-02-11T08:46:06;6.40;99.90
17956;DHT22;27666;51.498;11.966;2023-02-11T08:48:52;6.40;99.90
17956;DHT22;27666;51.498;11.966;2023-02-11T08:51:39;6.40;99.90
17956;DHT22;27666;51.498;11.966;2023-02-11T08:54:26;6.40;99.90
17956;DHT22;27666;51.498;11.966;2023-02-11T08:57:12;6.40;99.90
17956;DHT22;27666;51.498;11.966;2023-02-11T09:00:00;6.40;99.90
17956;DHT22;27666;51.498;11.966;2023-02-11T09:02:47;6.40;99.90
17956;DHT22;27666;51.498;11.966;2023-02-11T09:05:33;6.40;99.90
17956;DHT22;27666;51.498;11.966;2023-02-11T09:08:20;6.50;99.90
17956;DHT22;27666;51.498;11.966;2023-02-11T09:11:07;6.50;99.90
17956;DHT22;27666;51.498;11.966;2023-02-11T09:13:53;6.40;99.90
17956;DHT22;27666;51.498;11.966;2023-02-11T09:16:42;6.30;99.90
17956;DHT22;27666;51.498;11.966;2023-02-11T09:19:28;6.30;99.90
17956;DHT22;27666;51.498;11.966;2023-02-11T09:22:15;6.40;99.90
17956;DHT22;27666;51.498;11.966;2023-02-11T09:25:01;6.40;99.90
17956;DHT22;27666;51.498;11.966;2023-02-11T09:27:48;7.40;99.90
17956;DHT22;27666;51.498;11.966;2023-02-11T09:30:36;7.50;99.90
17956;DHT22;27666;51.498;11.966;2023-02-11T09:33:24;7.40;99.90
17956;DHT22;27666;51.498;11.966;2023-02-11T09:36:12;7.40;99.90
17956;DHT22;27666;51.498;11.966;2023-02-11T09:39:00;7.60;99.90
17956;DHT22;27666;51.498;11.966;2023-02-11T09:42:07;7.40;99.90
17956;DHT22;27666;51.498;11.966;2023-02-11T09:44:55;7.50;99.90
17956;DHT22;27666;51.498;11.966;2023-02-11T09:47:47;7.40;99.90
17956;DHT22;27666;51.498;11.966;2023-02-11T09:50:39;7.40;99.90
17956;DHT22;27666;51.498;11.966;2023-02-11T09:53:26;7.30;99.90
17956;DHT22;27666;51.498;11.966;2023-02-11T09:56:14;7.30;99.90
17956;DHT22;27666;51.498;11.966;2023-02-11T09:59:01;7.30;99.90
17956;DHT22;27666;51.498;11.966;2023-02-11T10:01:49;7.40;99.90
17956;DHT22;27666;51.498;11.966;2023-02-11T10:04:47;7.40;99.90
17956;DHT22;27666;51.498;11.966;2023-02-11T10:07:45;7.30;99.90
17956;DHT22;27666;51.498;11.966;2023-02-11T10:10:46;7.40;99.90
17956;DHT22;27666;51.498;11.966;2023-02-11T10:13:46;7.40;99.90
17956;DHT22;27666;51.498;11.966;2023-02-11T10:16:46;7.40;99.90
17956;DHT22;27666;51.498;11.966;2023-02-11T10:19:58;7.50;99.90
17956;DHT22;27666;51.498;11.966;2023-02-11T10:22:51;7.60;99.90
17956;DHT22;27666;51.498;11.966;2023-02-11T10:25:42;7.70;99.90
17956;DHT22;27666;51.498;11.966;2023-02-11T10:28:32;7.70;99.90
17956;DHT22;27666;51.498;11.966;2023-02-11T10:31:22;7.70;99.90
17956;DHT22;27666;51.498;11.966;2023-02-11T10:34:11;7.70;99.90
17956;DHT22;27666;51.498;11.966;2023-02-11T10:36:59;7.70;99.90
17956;DHT22;27666;51.498;11.966;2023-02-11T10:39:46;7.50;99.90
17956;DHT22;27666;51.498;11.966;2023-02-11T10:42:34;7.60;99.90
17956;DHT22;27666;51.498;11.966;2023-02-11T10:45:26;7.60;99.90
17956;DHT22;27666;51.498;11.966;2023-02-11T10:48:36;7.70;99.90
17956;DHT22;27666;51.498;11.966;2023-02-11T10:51:25;7.80;99.90
17956;DHT22;27666;51.498;11.966;2023-02-11T10:54:17;7.80;99.90
17956;DHT22;27666;51.498;11.966;2023-02-11T10:57:17;7.90;99.90
17956;DHT22;27666;51.498;11.966;2023-02-11T11:00:18;7.90;99.90
17956;DHT22;27666;51.498;11.966;2023-02-11T11:03:16;7.90;99.90
17956;DHT22;27666;51.498;11.966;2023-02-11T11:06:05;7.80;99.90
17956;DHT22;27666;51.498;11.966;2023-02-11T11:08:53;7.80;99.90
17956;DHT22;27666;51.498;11.966;2023-02-11T11:11:50;7.90;99.90
17956;DHT22;27666;51.498;11.966;2023-02-11T11:14:39;8.00;99.90
17956;DHT22;27666;51.498;11.966;2023-02-11T11:17:26;8.00;99.90
17956;DHT22;27666;51.498;11.966;2023-02-11T11:20:25;8.00;99.90
17956;DHT22;27666;51.498;11.966;2023-02-11T11:23:16;8.10;99.90
17956;DHT22;27666;51.498;11.966;2023-02-11T11:26:06;8.00;99.90
17956;DHT22;27666;51.498;11.966;2023-02-11T11:28:57;7.90;99.90
17956;DHT22;27666;51.498;11.966;2023-02-11T11:31:50;8.00;99.90
17956;DHT22;27666;51.498;11.966;2023-02-11T11:34:40;8.00;99.90
17956;DHT22;27666;51.498;11.966;2023-02-11T11:37:29;8.00;99.90
17956;DHT22;27666;51.498;11.966;2023-02-11T11:40:22;8.00;99.90
17956;DHT22;27666;51.498;11.966;2023-02-11T11:43:17;8.00;99.90
17956;DHT22;27666;51.498;11.966;2023-02-11T11:46:08;7.90;99.90
17956;DHT22;27666;51.498;11.966;2023-02-11T11:49:11;7.90;99.90
17956;DHT22;27666;51.498;11.966;2023-02-11T11:52:10;7.90;99.90
17956;DHT22;27666;51.498;11.966;2023-02-11T11:55:04;7.90;99.90
17956;DHT22;27666;51.498;11.966;2023-02-11T11:57:52;7.90;99.90
17956;DHT22;27666;51.498;11.966;2023-02-11T12:00:46;7.90;99.90
17956;DHT22;27666;51.498;11.966;2023-02-11T12:04:15;8.00;99.90
17956;DHT22;27666;51.498;11.966;2023-02-11T12:07:15;8.10;99.90
17956;DHT22;27666;51.498;11.966;2023-02-11T12:10:28;8.10;99.90
17956;DHT22;27666;51.498;11.966;2023-02-11T12:13:30;8.10;99.90
17956;DHT22;27666;51.498;11.966;2023-02-11T12:16:27;8.20;99.90
17956;DHT22;27666;51.498;11.966;2023-02-11T12:19:53;8.30;99.90
17956;DHT22;27666;51.498;11.966;2023-02-11T12:22:53;8.40;99.90
17956;DHT22;27666;51.498;11.966;2023-02-11T12:25:45;8.50;99.90
17956;DHT22;27666;51.498;11.966;2023-02-11T12:28:37;8.50;99.90
17956;DHT22;27666;51.498;11.966;2023-02-11T12:31:43;8.40;99.90
17956;DHT22;27666;51.498;11.966;2023-02-11T12:34:59;8.30;99.90
17956;DHT22;27666;51.498;11.966;2023-02-11T12:37:57;8.40;99.90
17956;DHT22;27666;51.498;11.966;2023-02-11T12:40:57;8.40;99.90
17956;DHT22;27666;51.498;11.966;2023-02-11T12:43:44;8.40;99.90
17956;DHT22;27666;51.498;11.966;2023-02-11T12:46:38;8.50;99.90
17956;DHT22;27666;51.498;11.966;2023-02-11T12:49:53;8.40;99.90
17956;DHT22;27666;51.498;11.966;2023-02-11T12:53:06;8.40;99.90
17956;DHT22;27666;51.498;11.966;2023-02-11T12:55:59;8.40;99.90
17956;DHT22;27666;51.498;11.966;2023-02-11T12:58:51;8.50;99.90
17956;DHT22;27666;51.498;11.966;2023-02-11T13:01:41;8.50;99.90
17956;DHT22;27666;51.498;11.966;2023-02-11T13:04:34;8.40;99.90
17956;DHT22;27666;51.498;11.966;2023-02-11T13:07:27;8.40;99.90
17956;DHT22;27666;51.498;11.966;2023-02-11T13:10:25;8.30;99.90
17956;DHT22;27666;51.498;11.966;2023-02-11T13:13:15;8.30;99.90
17956;DHT22;27666;51.498;11.966;2023-02-11T13:16:06;8.40;99.90
17956;DHT22;27666;51.498;11.966;2023-02-11T13:19:05;8.30;99.90
17956;DHT22;27666;51.498;11.966;2023-02-11T13:22:01;8.40;99.90
17956;DHT22;27666;51.498;11.966;2023-02-11T13:24:55;8.40;99.90
17956;DHT22;27666;51.498;11.966;2023-02-11T13:27:49;8.30;99.90
17956;DHT22;27666;51.498;11.966;2023-02-11T13:30:43;8.40;99.90
17956;DHT22;27666;51.498;11.966;2023-02-11T13:33:37;8.30;99.90
17956;DHT22;27666;51.498;11.966;2023-02-11T13:36:27;8.20;99.90
17956;DHT22;27666;51.498;11.966;2023-02-11T13:39:19;8.30;99.90
17956;DHT22;27666;51.498;11.966;2023-02-11T13:42:14;8.30;99.90
17956;DHT22;27666;51.498;11.966;2023-02-11T13:45:02;8.30;99.90
17956;DHT22;27666;51.498;11.966;2023-02-11T13:48:04;8.30;99.90
17956;DHT22;27666;51.498;11.966;2023-02-11T13:50:55;8.30;99.90
17956;DHT22;27666;51.498;11.966;2023-02-11T13:53:45;8.30;99.90
17956;DHT22;27666;51.498;11.966;2023-02-11T13:56:34;8.40;99.90
17956;DHT22;27666;51.498;11.966;2023-02-11T13:59:44;8.40;99.90
17956;DHT22;27666;51.498;11.966;2023-02-11T14:02:32;8.50;99.90
17956;DHT22;27666;51.498;11.966;2023-02-11T14:05:37;8.40;99.90
17956;DHT22;27666;51.498;11.966;2023-02-11T14:09:04;8.30;99.90
17956;DHT22;27666;51.498;11.966;2023-02-11T14:11:53;8.30;99.90
17956;DHT22;27666;51.498;11.966;2023-02-11T14:15:17;8.30;99.90
17956;DHT22;27666;51.498;11.966;2023-02-11T14:18:38;8.20;99.90
17956;DHT22;27666;51.498;11.966;2023-02-11T14:21:43;8.20;99.90
17956;DHT22;27666;51.498;11.966;2023-02-11T14:24:50;8.30;99.90
17956;DHT22;27666;51.498;11.966;2023-02-11T14:27:41;8.30;99.90
17956;DHT22;27666;51.498;11.966;2023-02-11T14:30:41;8.30;99.90
17956;DHT22;27666;51.498;11.966;2023-02-11T14:33:59;8.40;99.90
17956;DHT22;27666;51.498;11.966;2023-02-11T14:36:57;8.30;99.90
17956;DHT22;27666;51.498;11.966;2023-02-11T14:39:57;8.30;99.90
17956;DHT22;27666;51.498;11.966;2023-02-11T14:42:46;8.30;99.90
17956;DHT22;27666;51.498;11.966;2023-02-11T14:45:36;8.30;99.90
17956;DHT22;27666;51.498;11.966;2023-02-11T14:48:27;8.30;99.90
17956;DHT22;27666;51.498;11.966;2023-02-11T14:51:18;8.30;99.90
17956;DHT22;27666;51.498;11.966;2023-02-11T14:54:10;8.30;99.90
17956;DHT22;27666;51.498;11.966;2023-02-11T14:57:08;8.30;99.90
17956;DHT22;27666;51.498;11.966;2023-02-11T14:59:57;8.30;99.90
17956;DHT22;27666;51.498;11.966;2023-02-11T15:02:48;8.30;99.90
17956;DHT22;27666;51.498;11.966;2023-02-11T15:05:35;8.30;99.90
17956;DHT22;27666;51.498;11.966;2023-02-11T15:08:21;8.40;99.90
17956;DHT22;27666;51.498;11.966;2023-02-11T15:11:11;8.50;99.90
17956;DHT22;27666;51.498;11.966;2023-02-11T15:14:06;8.50;99.90
17956;DHT22;27666;51.498;11.966;2023-02-11T15:16:55;8.50;99.90
17956;DHT22;27666;51.498;11.966;2023-02-11T15:19:47;8.50;99.90
17956;DHT22;27666;51.498;11.966;2023-02-11T15:22:34;8.40;99.90
17956;DHT22;27666;51.498;11.966;2023-02-11T15:25:22;8.40;99.90
17956;DHT22;27666;51.498;11.966;2023-02-11T15:28:14;8.50;99.90
17956;DHT22;27666;51.498;11.966;2023-02-11T15:31:13;8.40;99.90
17956;DHT22;27666;51.498;11.966;2023-02-11T15:34:11;8.40;99.90
17956;DHT22;27666;51.498;11.966;2023-02-11T15:36:59;8.40;99.90
17956;DHT22;27666;51.498;11.966;2023-02-11T15:39:46;8.40;99.90
17956;DHT22;27666;51.498;11.966;2023-02-11T15:42:32;8.40;99.90
17956;DHT22;27666;51.498;11.966;2023-02-11T15:45:38;8.30;99.90
17956;DHT22;27666;51.498;11.966;2023-02-11T15:48:33;8.30;99.90
17956;DHT22;27666;51.498;11.966;2023-02-11T15:51:22;8.30;99.90
17956;DHT22;27666;51.498;11.966;2023-02-11T15:54:17;8.20;99.90
17956;DHT22;27666;51.498;11.966;2023-02-11T15:57:06;8.10;99.90
17956;DHT22;27666;51.498;11.966;2023-02-11T15:59:55;8.10;99.90
17956;DHT22;27666;51.498;11.966;2023-02-11T16:02:44;8.10;99.90
17956;DHT22;27666;51.498;11.966;2023-02-11T16:05:34;8.00;99.90
17956;DHT22;27666;51.498;11.966;2023-02-11T16:08:24;8.00;99.90
17956;DHT22;27666;51.498;11.966;2023-02-11T16:11:24;7.90;99.90
17956;DHT22;27666;51.498;11.966;2023-02-11T16:14:20;7.90;99.90
17956;DHT22;27666;51.498;11.966;2023-02-11T16:17:10;7.90;99.90
17956;DHT22;27666;51.498;11.966;2023-02-11T16:19:57;8.00;99.90
17956;DHT22;27666;51.498;11.966;2023-02-11T16:22:45;8.00;99.90
17956;DHT22;27666;51.498;11.966;2023-02-11T16:25:34;7.90;99.90
17956;DHT22;27666;51.498;11.966;2023-02-11T16:28:22;7.90;99.90
17956;DHT22;27666;51.498;11.966;2023-02-11T16:31:09;8.00;99.90
17956;DHT22;27666;51.498;11.966;2023-02-11T16:33:56;7.90;99.90
17956;DHT22;27666;51.498;11.966;2023-02-11T16:36:42;7.90;99.90
17956;DHT22;27666;51.498;11.966;2023-02-11T16:39:29;7.90;99.90
17956;DHT22;27666;51.498;11.966;2023-02-11T16:42:16;7.80;99.90
17956;DHT22;27666;51.498;11.966;2023-02-11T16:45:05;7.80;99.90
17956;DHT22;27666;51.498;11.966;2023-02-11T16:47:52;7.70;99.90
17956;DHT22;27666;51.498;11.966;2023-02-11T16:50:44;7.80;99.90
17956;DHT22;27666;51.498;11.966;2023-02-11T16:53:31;7.70;99.90
17956;DHT22;27666;51.498;11.966;2023-02-11T16:56:18;7.70;99.90
17956;DHT22;27666;51.498;11.966;2023-02-11T16:59:05;7.70;99.90
17956;DHT22;27666;51.498;11.966;2023-02-11T17:01:54;7.60;99.90
17956;DHT22;27666;51.498;11.966;2023-02-11T17:04:41;7.70;99.90
17956;DHT22;27666;51.498;11.966;2023-02-11T17:07:28;7.70;99.90
17956;DHT22;27666;51.498;11.966;2023-02-11T17:10:17;7.60;99.90
17956;DHT22;27666;51.498;11.966;2023-02-11T17:13:06;7.80;99.90
17956;DHT22;27666;51.498;11.966;2023-02-11T17:15:52;7.80;99.90
17956;DHT22;27666;51.498;11.966;2023-02-11T17:18:41;7.70;99.90
17956;DHT22;27666;51.498;11.966;2023-02-11T17:21:28;7.70;99.90
17956;DHT22;27666;51.498;11.966;2023-02-11T17:24:16;7.70;99.90
17956;DHT22;27666;51.498;11.966;2023-02-11T17:27:03;7.70;99.90
17956;DHT22;27666;51.498;11.966;2023-02-11T17:29:50;7.60;99.90
17956;DHT22;27666;51.498;11.966;2023-02-11T17:32:36;7.70;99.90
17956;DHT22;27666;51.498;11.966;2023-02-11T17:35:24;7.70;99.90
17956;DHT22;27666;51.498;11.966;2023-02-11T17:38:11;7.70;99.90
17956;DHT22;27666;51.498;11.966;2023-02-11T17:40:58;7.80;99.90
17956;DHT22;27666;51.498;11.966;2023-02-11T17:43:45;7.90;99.90
17956;DHT22;27666;51.498;11.966;2023-02-11T17:46:32;7.80;99.90
17956;DHT22;27666;51.498;11.966;2023-02-11T17:49:19;7.80;99.90
17956;DHT22;27666;51.498;11.966;2023-02-11T17:52:07;7.80;99.90
17956;DHT22;27666;51.498;11.966;2023-02-11T17:54:54;7.90;99.90
17956;DHT22;27666;51.498;11.966;2023-02-11T17:57:42;7.90;99.90
17956;DHT22;27666;51.498;11.966;2023-02-11T18:00:29;7.90;99.90
17956;DHT22;27666;51.498;11.966;2023-02-11T18:03:16;7.90;99.90
17956;DHT22;27666;51.498;11.966;2023-02-11T18:06:05;7.90;99.90
17956;DHT22;27666;51.498;11.966;2023-02-11T18:08:54;7.90;99.90